sensor_id;sensor_type;location;lat;lon;timestamp;temperature;humidity
52305;DHT22;38248;52.722;6.734;2022-11-14T00:00:03;6.50;99.90
52305;DHT22;38248;52.722;6.734;2022-11-14T00:02:43;6.60;99.90
52305;DHT22;38248;52.722;6.734;2022-11-14T00:05:15;6.60;99.90
52305;DHT22;38248;52.722;6.734;2022-11-14T00:07:43;6.50;99.90
52305;DHT22;38248;52.722;6.734;2022-11-14T00:10:29;6.60;99.90
52305;DHT22;38248;52.722;6.734;2022-11-14T00:12:58;6.60;99.90
52305;DHT22;38248;52.722;6.734;2022-11-14T00:16:04;6.70;99.90
52305;DHT22;38248;52.722;6.734;2022-11-14T00:18:31;6.60;99.90
52305;DHT22;38248;52.722;6.734;2022-11-14T00:21:28;6.60;99.90
52305;DHT22;38248;52.722;6.734;2022-11-14T00:28:11;6.60;99.90
52305;DHT22;38248;52.722;6.734;2022-11-14T00:30:47;6.60;99.90
52305;DHT22;38248;52.722;6.734;2022-11-14T00:33:17;6.60;99.90
52305;DHT22;38248;52.722;6.734;2022-11-14T00:36:09;6.60;99.90
52305;DHT22;38248;52.722;6.734;2022-11-14T00:38:53;6.50;99.90
52305;DHT22;38248;52.722;6.734;2022-11-14T00:41:26;6.60;99.90
52305;DHT22;38248;52.722;6.734;2022-11-14T00:46:48;6.60;99.90
52305;DHT22;38248;52.722;6.734;2022-11-14T00:49:26;6.60;99.90
52305;DHT22;38248;52.722;6.734;2022-11-14T00:52:12;6.70;99.90
52305;DHT22;38248;52.722;6.734;2022-11-14T00:57:36;6.60;99.90
52305;DHT22;38248;52.722;6.734;2022-11-14T01:00:45;6.60;99.90
52305;DHT22;38248;52.722;6.734;2022-11-14T01:03:58;6.70;99.90
52305;DHT22;38248;52.722;6.734;2022-11-14T01:06:34;6.50;99.90
52305;DHT22;38248;52.722;6.734;2022-11-14T01:12:26;6.40;99.90
52305;DHT22;38248;52.722;6.734;2022-11-14T01:15:05;6.40;99.90
52305;DHT22;38248;52.722;6.734;2022-11-14T01:17:36;6.30;99.90
52305;DHT22;38248;52.722;6.734;2022-11-14T01:20:20;6.30;99.90
52305;DHT22;38248;52.722;6.734;2022-11-14T01:22:51;6.30;99.90
52305;DHT22;38248;52.722;6.734;2022-11-14T01:25:19;6.20;99.90
52305;DHT22;38248;52.722;6.734;2022-11-14T01:27:57;6.20;99.90
52305;DHT22;38248;52.722;6.734;2022-11-14T01:31:01;6.10;99.90
52305;DHT22;38248;52.722;6.734;2022-11-14T01:33:35;6.00;99.90
52305;DHT22;38248;52.722;6.734;2022-11-14T01:36:43;6.00;99.90
52305;DHT22;38248;52.722;6.734;2022-11-14T01:39:08;6.00;99.90
52305;DHT22;38248;52.722;6.734;2022-11-14T01:41:59;6.00;99.90
52305;DHT22;38248;52.722;6.734;2022-11-14T01:44:48;6.00;99.90
52305;DHT22;38248;52.722;6.734;2022-11-14T01:47:31;6.00;99.90
52305;DHT22;38248;52.722;6.734;2022-11-14T01:54:03;5.90;99.90
52305;DHT22;38248;52.722;6.734;2022-11-14T02:04:24;5.90;99.90
52305;DHT22;38248;52.722;6.734;2022-11-14T02:16:45;6.10;99.90
52305;DHT22;38248;52.722;6.734;2022-11-14T02:27:23;6.00;99.90
52305;DHT22;38248;52.722;6.734;2022-11-14T02:30:20;6.00;99.90
52305;DHT22;38248;52.722;6.734;2022-11-14T02:33:11;6.00;99.90
52305;DHT22;38248;52.722;6.734;2022-11-14T02:35:53;6.00;99.90
52305;DHT22;38248;52.722;6.734;2022-11-14T02:41:38;5.90;99.90
52305;DHT22;38248;52.722;6.734;2022-11-14T02:44:45;6.00;99.90
52305;DHT22;38248;52.722;6.734;2022-11-14T02:50:22;6.10;99.90
52305;DHT22;38248;52.722;6.734;2022-11-14T02:52:59;6.10;99.90
52305;DHT22;38248;52.722;6.734;2022-11-14T02:55:35;6.10;99.90
52305;DHT22;38248;52.722;6.734;2022-11-14T02:58:01;6.00;99.90
52305;DHT22;38248;52.722;6.734;2022-11-14T03:00:26;6.10;99.90
52305;DHT22;38248;52.722;6.734;2022-11-14T03:06:10;6.10;99.90
52305;DHT22;38248;52.722;6.734;2022-11-14T03:40:57;6.00;99.90
52305;DHT22;38248;52.722;6.734;2022-11-14T03:43:28;6.00;99.90
52305;DHT22;38248;52.722;6.734;2022-11-14T03:46:59;6.00;99.90
52305;DHT22;38248;52.722;6.734;2022-11-14T03:50:13;6.00;99.90
52305;DHT22;38248;52.722;6.734;2022-11-14T04:05:23;6.00;99.90
52305;DHT22;38248;52.722;6.734;2022-11-14T04:07:57;6.00;99.90
52305;DHT22;38248;52.722;6.734;2022-11-14T04:10:23;6.00;99.90
52305;DHT22;38248;52.722;6.734;2022-11-14T04:12:52;6.00;99.90
52305;DHT22;38248;52.722;6.734;2022-11-14T04:21:58;6.00;99.90
52305;DHT22;38248;52.722;6.734;2022-11-14T04:24:53;6.10;99.90
52305;DHT22;38248;52.722;6.734;2022-11-14T04:27:25;6.00;99.90
52305;DHT22;38248;52.722;6.734;2022-11-14T04:33:23;6.00;99.90
52305;DHT22;38248;52.722;6.734;2022-11-14T04:35:55;6.00;99.90
52305;DHT22;38248;52.722;6.734;2022-11-14T04:41:43;6.00;99.90
52305;DHT22;38248;52.722;6.734;2022-11-14T05:01:49;6.00;99.90
52305;DHT22;38248;52.722;6.734;2022-11-14T05:15:10;6.00;99.90
52305;DHT22;38248;52.722;6.734;2022-11-14T05:25:18;6.00;99.90
52305;DHT22;38248;52.722;6.734;2022-11-14T05:28:00;6.00;99.90
52305;DHT22;38248;52.722;6.734;2022-11-14T05:54:19;5.90;99.90
52305;DHT22;38248;52.722;6.734;2022-11-14T06:23:42;5.70;99.90
52305;DHT22;38248;52.722;6.734;2022-11-14T06:26:23;5.70;99.90
52305;DHT22;38248;52.722;6.734;2022-11-14T06:29:03;5.70;99.90
52305;DHT22;38248;52.722;6.734;2022-11-14T06:31:39;5.60;99.90
52305;DHT22;38248;52.722;6.734;2022-11-14T06:34:09;5.60;99.90
52305;DHT22;38248;52.722;6.734;2022-11-14T06:36:37;5.50;99.90
52305;DHT22;38248;52.722;6.734;2022-11-14T06:39:38;5.50;99.90
52305;DHT22;38248;52.722;6.734;2022-11-14T06:42:07;5.50;99.90
52305;DHT22;38248;52.722;6.734;2022-11-14T06:44:36;5.50;99.90
52305;DHT22;38248;52.722;6.734;2022-11-14T06:47:03;5.40;99.90
52305;DHT22;38248;52.722;6.734;2022-11-14T06:49:30;5.50;99.90
52305;DHT22;38248;52.722;6.734;2022-11-14T06:51:59;5.40;99.90
52305;DHT22;38248;52.722;6.734;2022-11-14T06:54:28;5.40;99.90
52305;DHT22;38248;52.722;6.734;2022-11-14T06:57:15;5.50;99.90
52305;DHT22;38248;52.722;6.734;2022-11-14T06:59:45;5.30;99.90
52305;DHT22;38248;52.722;6.734;2022-11-14T07:02:11;5.30;99.90
52305;DHT22;38248;52.722;6.734;2022-11-14T07:04:44;5.40;99.90
52305;DHT22;38248;52.722;6.734;2022-11-14T07:07:13;5.30;99.90
52305;DHT22;38248;52.722;6.734;2022-11-14T07:10:05;5.20;99.90
52305;DHT22;38248;52.722;6.734;2022-11-14T07:12:36;5.20;99.90
52305;DHT22;38248;52.722;6.734;2022-11-14T07:15:23;5.10;99.90
52305;DHT22;38248;52.722;6.734;2022-11-14T07:17:49;5.20;99.90
52305;DHT22;38248;52.722;6.734;2022-11-14T07:20:15;5.10;99.90
52305;DHT22;38248;52.722;6.734;2022-11-14T07:22:47;5.10;99.90
52305;DHT22;38248;52.722;6.734;2022-11-14T07:25:15;5.20;99.90
52305;DHT22;38248;52.722;6.734;2022-11-14T07:27:42;5.10;99.90
52305;DHT22;38248;52.722;6.734;2022-11-14T07:30:07;5.10;99.90
52305;DHT22;38248;52.722;6.734;2022-11-14T07:32:33;5.10;99.90
52305;DHT22;38248;52.722;6.734;2022-11-14T07:35:04;5.10;99.90
52305;DHT22;38248;52.722;6.734;2022-11-14T07:37:36;5.10;99.90
52305;DHT22;38248;52.722;6.734;2022-11-14T07:40:05;5.10;99.90
52305;DHT22;38248;52.722;6.734;2022-11-14T07:42:30;5.10;99.90
52305;DHT22;38248;52.722;6.734;2022-11-14T07:45:08;5.20;99.90
52305;DHT22;38248;52.722;6.734;2022-11-14T07:47:40;5.20;99.90
52305;DHT22;38248;52.722;6.734;2022-11-14T07:50:14;5.30;99.90
52305;DHT22;38248;52.722;6.734;2022-11-14T07:52:42;5.30;99.90
52305;DHT22;38248;52.722;6.734;2022-11-14T07:55:11;5.40;99.90
52305;DHT22;38248;52.722;6.734;2022-11-14T07:57:40;5.50;99.90
52305;DHT22;38248;52.722;6.734;2022-11-14T08:00:26;5.40;99.90
52305;DHT22;38248;52.722;6.734;2022-11-14T08:02:52;5.50;99.90
52305;DHT22;38248;52.722;6.734;2022-11-14T08:05:18;5.50;99.90
52305;DHT22;38248;52.722;6.734;2022-11-14T08:07:43;5.50;99.90
52305;DHT22;38248;52.722;6.734;2022-11-14T08:10:12;5.60;99.90
52305;DHT22;38248;52.722;6.734;2022-11-14T08:15:39;5.70;99.90
52305;DHT22;38248;52.722;6.734;2022-11-14T08:18:06;5.70;99.90
52305;DHT22;38248;52.722;6.734;2022-11-14T08:20:32;5.70;99.90
52305;DHT22;38248;52.722;6.734;2022-11-14T08:23:13;5.70;99.90
52305;DHT22;38248;52.722;6.734;2022-11-14T08:26:07;5.70;99.90
52305;DHT22;38248;52.722;6.734;2022-11-14T08:28:50;5.90;99.90
52305;DHT22;38248;52.722;6.734;2022-11-14T08:32:02;5.90;99.90
52305;DHT22;38248;52.722;6.734;2022-11-14T08:34:28;5.90;99.90
52305;DHT22;38248;52.722;6.734;2022-11-14T08:36:56;6.00;99.90
52305;DHT22;38248;52.722;6.734;2022-11-14T08:39:50;6.00;99.90
52305;DHT22;38248;52.722;6.734;2022-11-14T08:42:16;6.10;99.90
52305;DHT22;38248;52.722;6.734;2022-11-14T08:44:42;6.10;99.90
52305;DHT22;38248;52.722;6.734;2022-11-14T08:47:10;6.10;99.90
52305;DHT22;38248;52.722;6.734;2022-11-14T08:49:36;6.20;99.90
52305;DHT22;38248;52.722;6.734;2022-11-14T08:52:05;6.20;99.90
52305;DHT22;38248;52.722;6.734;2022-11-14T08:54:30;6.20;99.90
52305;DHT22;38248;52.722;6.734;2022-11-14T08:56:56;6.30;99.90
52305;DHT22;38248;52.722;6.734;2022-11-14T08:59:22;6.30;99.90
52305;DHT22;38248;52.722;6.734;2022-11-14T09:01:48;6.40;99.90
52305;DHT22;38248;52.722;6.734;2022-11-14T09:04:14;6.40;99.90
52305;DHT22;38248;52.722;6.734;2022-11-14T09:06:40;6.40;99.90
52305;DHT22;38248;52.722;6.734;2022-11-14T09:09:06;6.50;99.90
52305;DHT22;38248;52.722;6.734;2022-11-14T09:11:37;6.60;99.90
52305;DHT22;38248;52.722;6.734;2022-11-14T09:20:35;6.80;99.90
52305;DHT22;38248;52.722;6.734;2022-11-14T09:25:49;6.80;99.90
52305;DHT22;38248;52.722;6.734;2022-11-14T09:28:18;6.90;99.90
52305;DHT22;38248;52.722;6.734;2022-11-14T09:30:58;6.90;99.90
52305;DHT22;38248;52.722;6.734;2022-11-14T09:34:03;7.00;99.90
52305;DHT22;38248;52.722;6.734;2022-11-14T09:36:36;6.90;99.90
52305;DHT22;38248;52.722;6.734;2022-11-14T09:39:11;7.00;99.90
52305;DHT22;38248;52.722;6.734;2022-11-14T09:41:46;7.00;99.90
52305;DHT22;38248;52.722;6.734;2022-11-14T09:47:51;7.10;99.90
52305;DHT22;38248;52.722;6.734;2022-11-14T09:50:23;7.10;99.90
52305;DHT22;38248;52.722;6.734;2022-11-14T09:56:36;7.20;99.90
52305;DHT22;38248;52.722;6.734;2022-11-14T10:06:09;7.40;99.90
52305;DHT22;38248;52.722;6.734;2022-11-14T10:08:51;7.60;99.90
52305;DHT22;38248;52.722;6.734;2022-11-14T10:26:27;7.40;99.90
52305;DHT22;38248;52.722;6.734;2022-11-14T10:45:36;7.50;99.90
52305;DHT22;38248;52.722;6.734;2022-11-14T10:51:48;7.60;99.90
52305;DHT22;38248;52.722;6.734;2022-11-14T10:54:26;7.60;99.90
52305;DHT22;38248;52.722;6.734;2022-11-14T10:56:59;7.70;99.90
52305;DHT22;38248;52.722;6.734;2022-11-14T10:59:28;7.70;99.90
52305;DHT22;38248;52.722;6.734;2022-11-14T11:01:56;7.70;99.90
52305;DHT22;38248;52.722;6.734;2022-11-14T11:09:59;7.70;99.90
52305;DHT22;38248;52.722;6.734;2022-11-14T11:12:51;7.70;99.90
52305;DHT22;38248;52.722;6.734;2022-11-14T11:15:29;7.70;99.90
52305;DHT22;38248;52.722;6.734;2022-11-14T11:18:39;7.80;99.90
52305;DHT22;38248;52.722;6.734;2022-11-14T11:21:08;7.80;99.90
52305;DHT22;38248;52.722;6.734;2022-11-14T11:23:53;7.90;99.90
52305;DHT22;38248;52.722;6.734;2022-11-14T11:26:20;7.90;99.90
52305;DHT22;38248;52.722;6.734;2022-11-14T11:37:54;8.00;99.90
52305;DHT22;38248;52.722;6.734;2022-11-14T11:40:53;8.10;99.90
52305;DHT22;38248;52.722;6.734;2022-11-14T11:49:44;8.20;99.90
52305;DHT22;38248;52.722;6.734;2022-11-14T11:55:22;8.50;99.90
52305;DHT22;38248;52.722;6.734;2022-11-14T11:58:25;8.30;99.90
52305;DHT22;38248;52.722;6.734;2022-11-14T12:01:07;8.30;99.90
52305;DHT22;38248;52.722;6.734;2022-11-14T12:04:12;8.40;99.90
52305;DHT22;38248;52.722;6.734;2022-11-14T12:06:40;8.50;99.90
52305;DHT22;38248;52.722;6.734;2022-11-14T12:26:07;8.70;99.90
52305;DHT22;38248;52.722;6.734;2022-11-14T12:31:37;8.70;99.90
52305;DHT22;38248;52.722;6.734;2022-11-14T12:34:06;8.80;99.90
52305;DHT22;38248;52.722;6.734;2022-11-14T12:36:51;8.80;99.90
52305;DHT22;38248;52.722;6.734;2022-11-14T12:39:29;8.80;99.90
52305;DHT22;38248;52.722;6.734;2022-11-14T12:42:12;8.90;99.90
52305;DHT22;38248;52.722;6.734;2022-11-14T12:48:34;9.00;99.90
52305;DHT22;38248;52.722;6.734;2022-11-14T12:51:01;9.00;99.90
52305;DHT22;38248;52.722;6.734;2022-11-14T13:10:48;9.30;99.90
52305;DHT22;38248;52.722;6.734;2022-11-14T13:13:25;9.40;99.90
52305;DHT22;38248;52.722;6.734;2022-11-14T13:16:22;9.40;99.90
52305;DHT22;38248;52.722;6.734;2022-11-14T13:19:17;9.40;99.90
52305;DHT22;38248;52.722;6.734;2022-11-14T13:33:44;9.50;99.90
52305;DHT22;38248;52.722;6.734;2022-11-14T13:36:10;9.50;99.90
52305;DHT22;38248;52.722;6.734;2022-11-14T13:42:33;9.70;99.90
52305;DHT22;38248;52.722;6.734;2022-11-14T13:50:35;9.60;99.90
52305;DHT22;38248;52.722;6.734;2022-11-14T13:53:23;9.60;99.90
52305;DHT22;38248;52.722;6.734;2022-11-14T13:58:30;9.60;99.90
52305;DHT22;38248;52.722;6.734;2022-11-14T14:07:03;9.40;99.90
52305;DHT22;38248;52.722;6.734;2022-11-14T14:09:57;9.40;99.90
52305;DHT22;38248;52.722;6.734;2022-11-14T14:24:27;9.10;99.90
52305;DHT22;38248;52.722;6.734;2022-11-14T14:27:01;9.00;99.90
52305;DHT22;38248;52.722;6.734;2022-11-14T14:33:09;8.90;99.90
52305;DHT22;38248;52.722;6.734;2022-11-14T14:38:50;8.90;99.90
52305;DHT22;38248;52.722;6.734;2022-11-14T14:41:47;8.90;99.90
52305;DHT22;38248;52.722;6.734;2022-11-14T14:44:37;8.90;99.90
52305;DHT22;38248;52.722;6.734;2022-11-14T14:49:42;8.90;99.90
52305;DHT22;38248;52.722;6.734;2022-11-14T14:52:30;8.90;99.90
52305;DHT22;38248;52.722;6.734;2022-11-14T14:54:57;8.90;99.90
52305;DHT22;38248;52.722;6.734;2022-11-14T14:57:23;8.90;99.90
52305;DHT22;38248;52.722;6.734;2022-11-14T15:00:02;8.90;99.90
52305;DHT22;38248;52.722;6.734;2022-11-14T15:05:38;8.90;99.90
52305;DHT22;38248;52.722;6.734;2022-11-14T15:08:43;8.80;99.90
52305;DHT22;38248;52.722;6.734;2022-11-14T15:11:09;8.80;99.90
52305;DHT22;38248;52.722;6.734;2022-11-14T15:16:36;8.70;99.90
52305;DHT22;38248;52.722;6.734;2022-11-14T15:19:02;8.80;99.90
52305;DHT22;38248;52.722;6.734;2022-11-14T15:21:31;8.70;99.90
52305;DHT22;38248;52.722;6.734;2022-11-14T15:24:34;8.80;99.90
52305;DHT22;38248;52.722;6.734;2022-11-14T15:26:53;8.80;99.90
52305;DHT22;38248;52.722;6.734;2022-11-14T15:29:26;8.80;99.90
52305;DHT22;38248;52.722;6.734;2022-11-14T15:32:02;8.80;99.90
52305;DHT22;38248;52.722;6.734;2022-11-14T15:34:56;8.70;99.90
52305;DHT22;38248;52.722;6.734;2022-11-14T15:37:29;8.70;99.90
52305;DHT22;38248;52.722;6.734;2022-11-14T15:40:13;8.70;99.90
52305;DHT22;38248;52.722;6.734;2022-11-14T15:43:49;8.70;99.90
52305;DHT22;38248;52.722;6.734;2022-11-14T15:45:49;8.60;99.90
52305;DHT22;38248;52.722;6.734;2022-11-14T15:48:17;8.70;99.90
52305;DHT22;38248;52.722;6.734;2022-11-14T15:50:43;8.60;99.90
52305;DHT22;38248;52.722;6.734;2022-11-14T15:55:39;8.60;99.90
52305;DHT22;38248;52.722;6.734;2022-11-14T15:58:23;8.60;99.90
52305;DHT22;38248;52.722;6.734;2022-11-14T16:00:52;8.60;99.90
52305;DHT22;38248;52.722;6.734;2022-11-14T16:03:27;8.50;99.90
